DNCA

Margaret Ekpo International Airport

Calabar, Nigeria
TAF DNCA 200330Z 2006/2112 VRB02KT 5000 BR SCT008 BECMG 2007/2009 24010KT 7000 NSW BKN011 FEW021CB TEMPO 2013/2019 TS BECMG 2019/2021 00000KT FEW008
Issued Valid From Valid To
Jan-20 @ 03:30 UTC
(8 hours ago)
Jan-20 @ 06:00 UTC
(5 hours ago)
Jan-21 @ 12:00 UTC
(-1 days ago)
Expired Click to View Jan-20 @ 06:00 to Jan-20 @ 07:00
TAF DNCA 200330Z 2006/2112 VRB02KT 5000 BR SCT008
Wind Visibility Clouds Conditions
Variable at 2 knots 5,005 meters
  • Scattered at 800' AGL
  • Mist
Becoming Jan-20 @ 07:00 to Jan-20 @ 19:00
BECMG 2007/2009 24010KT 7000 NSW BKN011 FEW021CB
Wind Visibility Clouds Conditions
240° at 10 knots 7,001 meters
  • Broken at 1,100' AGL
  • Few at 2,100' AGL
Temporary Jan-20 @ 13:00 to Jan-20 @ 19:00
TEMPO 2013/2019 TS
Conditions
  • Thunderstorm
Becoming Jan-20 @ 19:00 to Jan-21 @ 12:00
BECMG 2019/2021 00000KT FEW008
Visibility Clouds Conditions
7,001 meters
  • Few at 800' AGL
TAF DNCA 200330Z 2006/2112 VRB02KT 5000 BR SCT008 BECMG 2007/2009 24010KT 7000 NSW BKN011 FEW021CB TEMPO 2013/2019 TS BECMG 2019/2021 00000KT FEW008
Issued Jan-20 @ 03:30 UTC
(8 hours ago)
Valid From Jan-20 @ 06:00 UTC
(5 hours ago)
Valid To Jan-21 @ 12:00 UTC
(-1 days ago)
Jan-20 @ 06:00 - Jan-20 @ 07:00
Wind Visibility
Variable at 2 knots 5,005 meters
Clouds
  • Scattered at 800' AGL
Conditions
  • Mist
Becoming Jan-20 @ 07:00 - Jan-20 @ 19:00
Wind Visibility
240° at 10 knots 7,001 meters
Clouds
  • Broken at 1,100' AGL
  • Few at 2,100' AGL
Conditions
Temporary Jan-20 @ 13:00 - Jan-20 @ 19:00
Conditions
  • Thunderstorm
Becoming Jan-20 @ 19:00 - Jan-21 @ 12:00
Clouds
  • Few at 800' AGL
Conditions